Aeroporto :
LOGIN :

Iscrizione | Disclaimer

   EN    FR    IT 

 










Sommario :    VFR   VFR Marginale   IFR   IFR Intensivo   IFR Molto Intensivo
Visibilità : 
Base nubi : 
>= 8 km
>= 3000ft
5 / 8 km
1000 / 3000 ft
1500m / 5 km
500 / 1000 ft
800 / 1500m
200 / 500 ft
< 800m
< 200 ft
Simboli :   Temporali  Nebbia  Neve Forte  Precipitazioni Forti  Vento > 20 kt
SIGMETs :   Varie  Temporali  Ghiacco  Turbolenza  Onda orograficha  Ceneri Vulcaniche






- Altitudine del aeroporto : 59 ft
- Codice IATA : TSF


LIPH - Treviso

ULTIMO METAR :
  • 200020Z AUTO 04003KT 010V080 9999 NCD 07/03 Q1008

METARs OBSOLETI :
  • 192350Z AUTO 05004KT 9999 NCD 07/04 Q1008
  • 192320Z AUTO 04003KT 9999 NCD 07/04 Q1008
  • 192250Z AUTO VRB02KT 9999 NCD 07/04 Q1009
  • 192220Z AUTO 03002KT 9999 NCD 08/05 Q1009
  • 192150Z AUTO VRB02KT 9999 NCD 08/04 Q1009
  • 192120Z AUTO 01004KT 9999 NCD 09/05 Q1009
  • 192050Z AUTO 35004KT 9999 NCD 10/05 Q1009
  • 192020Z AUTO 01004KT 9999 FEW240/// 10/05 Q1009
  • 191950Z AUTO VRB02KT 9999 NCD 11/04 Q1009

TAF TAF LIPH
Valido dal 20 a 00 ore il 21 a 00 ore UTC


192300Z 2000/2024 VRB05KT 9999 FEW060
BECMG 2008/2010 10012KT
TEMPO 2010/2016 4000 SHRA
BECMG 2014/2016 VRB05KT



MetMap, La meteo Aeronautica in un colpo d'occhio ! - Copyright ORBIFLY Dicembre 2007 - Disclaimer

ORBIFLY MET'MAP TEAM :

Programmazione e sviluppo : Alexandra Zaïnal
Concezione : Baudouin d'Aumeries
Supporto tecnico e logistico : Manuel Goepfert
Aiuto : Marc-Olivier Méhu
Aiuto per la traduzione : Arnaldo La Scala




FONTI E CREDITI :

   NOAA